createdAt,value
2018-11-20T00:00:52.608Z,9.53
2018-11-20T00:03:57.634Z,9.03
2018-11-20T00:06:43.788Z,7.60
2018-11-20T00:09:42.071Z,8.33
2018-11-20T00:12:29.983Z,10.37
2018-11-20T00:15:19.081Z,8.47
2018-11-20T00:17:56.407Z,9.10
2018-11-20T00:20:42.874Z,10.80
2018-11-20T00:23:26.851Z,10.43
2018-11-20T00:26:25.980Z,10.53
2018-11-20T00:29:13.991Z,9.03
2018-11-20T00:32:08.997Z,10.60
2018-11-20T00:35:00.622Z,11.10
2018-11-20T00:37:54.890Z,10.47
2018-11-20T00:41:02.791Z,11.23
2018-11-20T00:43:54.909Z,12.07
2018-11-20T00:46:44.164Z,11.70
2018-11-20T00:49:30.278Z,11.73
2018-11-20T00:52:22.165Z,10.43
2018-11-20T00:55:10.154Z,11.30
2018-11-20T00:58:07.427Z,11.07
2018-11-20T01:00:54.989Z,11.03
2018-11-20T01:03:49.868Z,10.13
2018-11-20T01:06:39.008Z,11.07
2018-11-20T01:09:22.539Z,11.03
2018-11-20T01:11:59.500Z,9.57
2018-11-20T01:14:52.965Z,10.67
2018-11-20T01:17:40.712Z,13.00
2018-11-20T01:20:25.042Z,10.77
2018-11-20T01:23:06.566Z,11.13
2018-11-20T01:26:03.290Z,10.70
2018-11-20T01:28:51.187Z,13.17
2018-11-20T01:31:49.307Z,11.63
2018-11-20T01:34:37.297Z,14.73
2018-11-20T01:37:33.266Z,12.40
2018-11-20T01:40:22.395Z,14.27
2018-11-20T01:43:14.296Z,13.23
2018-11-20T01:45:58.902Z,13.67
2018-11-20T01:49:00.082Z,14.53
2018-11-20T01:51:48.197Z,15.20
2018-11-20T01:54:36.157Z,14.83
2018-11-20T01:57:23.806Z,16.37
2018-11-20T02:00:21.843Z,17.47
2018-11-20T02:03:16.930Z,15.10
2018-11-20T02:06:11.845Z,13.87
2018-11-20T02:08:59.637Z,16.60
2018-11-20T02:11:47.314Z,14.87
2018-11-20T02:14:36.770Z,16.47
2018-11-20T02:17:46.265Z,19.23
2018-11-20T02:20:41.164Z,15.20
2018-11-20T02:23:30.437Z,16.53
2018-11-20T02:26:19.593Z,15.70
2018-11-20T02:29:04.668Z,18.83
2018-11-20T02:31:56.821Z,19.47
2018-11-20T02:34:45.917Z,16.07
2018-11-20T02:37:37.799Z,18.77
2018-11-20T02:40:21.397Z,19.70
2018-11-20T02:43:19.518Z,20.88
2018-11-20T02:46:07.328Z,17.53
2018-11-20T02:49:11.865Z,18.03
2018-11-20T02:51:59.731Z,18.65
2018-11-20T02:54:47.419Z,19.63
2018-11-20T02:57:37.082Z,22.48
2018-11-20T03:00:19.084Z,18.17
2018-11-20T03:03:06.202Z,22.43
2018-11-20T03:06:01.209Z,23.27
2018-11-20T03:08:48.773Z,20.10
2018-11-20T03:11:50.777Z,21.70
2018-11-20T03:14:43.022Z,22.60
2018-11-20T03:17:25.841Z,21.73
2018-11-20T03:20:09.090Z,20.77
2018-11-20T03:23:04.680Z,19.90
2018-11-20T03:26:13.557Z,19.07
2018-11-20T03:29:52.534Z,23.20
2018-11-20T03:32:44.062Z,20.40
2018-11-20T03:35:33.181Z,22.30
2018-11-20T03:38:34.619Z,22.27
2018-11-20T03:41:22.544Z,20.50
2018-11-20T03:44:04.784Z,24.63
2018-11-20T03:46:43.070Z,14.50
2018-11-20T03:49:45.703Z,24.67
2018-11-20T03:52:33.576Z,19.87
2018-11-20T03:55:21.905Z,20.33
2018-11-20T03:58:04.426Z,20.60
2018-11-20T04:00:59.451Z,21.93
2018-11-20T04:03:51.282Z,23.92
2018-11-20T04:06:46.553Z,18.57
2018-11-20T04:09:35.669Z,22.20
2018-11-20T04:12:30.851Z,20.30
2018-11-20T04:15:23.002Z,20.53
2018-11-20T04:18:27.167Z,21.03
2018-11-20T04:21:31.181Z,20.10
2018-11-20T04:24:20.485Z,20.43
2018-11-20T04:27:10.016Z,20.80
2018-11-20T04:30:01.780Z,21.73
2018-11-20T04:32:39.958Z,22.27
2018-11-20T04:35:48.412Z,18.43
2018-11-20T04:38:29.797Z,21.13
2018-11-20T04:41:13.451Z,19.47
2018-11-20T04:44:01.026Z,18.23
2018-11-20T04:46:53.352Z,20.00
2018-11-20T04:49:48.319Z,19.23
2018-11-20T04:52:40.243Z,23.73
2018-11-20T04:55:28.326Z,21.07
2018-11-20T04:58:32.677Z,19.70
2018-11-20T05:01:20.245Z,19.03
2018-11-20T05:04:18.295Z,19.30
2018-11-20T05:07:01.850Z,19.77
2018-11-20T05:09:51.305Z,18.10
2018-11-20T05:12:47.010Z,17.20
2018-11-20T05:15:40.897Z,19.70
2018-11-20T05:18:30.093Z,18.93
2018-11-20T05:21:25.213Z,16.87
2018-11-20T05:24:18.708Z,19.37
2018-11-20T05:27:13.882Z,19.00
2018-11-20T05:30:08.943Z,13.87
2018-11-20T05:32:51.152Z,19.87
2018-11-20T05:35:40.260Z,17.90
2018-11-20T05:38:28.200Z,20.80
2018-11-20T05:41:16.266Z,18.03
2018-11-20T05:44:23.409Z,21.60
2018-11-20T05:47:11.293Z,18.97
2018-11-20T05:50:09.094Z,19.23
2018-11-20T05:52:55.661Z,18.23
2018-11-20T05:55:47.755Z,19.93
2018-11-20T05:58:30.497Z,17.80
2018-11-20T06:01:28.678Z,21.00
2018-11-20T06:04:20.669Z,20.43
2018-11-20T06:07:10.297Z,22.50
2018-11-20T06:10:05.481Z,20.23
2018-11-20T06:12:45.351Z,19.00
2018-11-20T06:15:33.196Z,20.50
2018-11-20T06:18:21.054Z,21.77
2018-11-20T06:21:21.985Z,21.87
2018-11-20T06:24:00.297Z,22.47
2018-11-20T06:26:55.419Z,22.17
2018-11-20T06:29:50.633Z,19.63
2018-11-20T06:32:45.479Z,19.37
2018-11-20T06:35:40.544Z,20.27
2018-11-20T06:38:28.489Z,20.57
2018-11-20T06:41:16.462Z,21.07
2018-11-20T06:44:09.277Z,20.30
2018-11-20T06:46:53.095Z,21.93
2018-11-20T06:49:42.046Z,21.90
2018-11-20T06:52:29.617Z,19.67
2018-11-20T06:55:18.753Z,18.77
2018-11-20T06:58:06.740Z,20.33
2018-11-20T07:01:00.722Z,19.00
2018-11-20T07:03:52.728Z,20.47
2018-11-20T07:06:54.054Z,18.77
2018-11-20T07:09:43.184Z,19.00
2018-11-20T07:12:25.116Z,20.07
2018-11-20T07:15:23.312Z,20.10
2018-11-20T07:18:18.731Z,19.93
2018-11-20T07:20:58.001Z,21.97
2018-11-20T07:23:45.721Z,20.63
2018-11-20T07:26:50.010Z,21.53
2018-11-20T07:29:33.243Z,21.53
2018-11-20T07:32:21.116Z,21.67
2018-11-20T07:35:01.395Z,19.80
2018-11-20T07:37:50.839Z,19.20
2018-11-20T07:40:31.854Z,19.20
2018-11-20T07:43:07.515Z,18.03
2018-11-20T07:45:56.640Z,21.30
2018-11-20T07:49:04.093Z,20.03
2018-11-20T07:52:05.227Z,19.57
2018-11-20T07:54:52.920Z,19.43
2018-11-20T07:57:33.606Z,19.40
2018-11-20T08:00:20.535Z,17.90
2018-11-20T08:03:08.229Z,17.03
2018-11-20T08:05:56.119Z,19.73
2018-11-20T08:08:54.302Z,23.93
2018-11-20T08:11:43.482Z,19.23
2018-11-20T08:14:24.172Z,18.27
2018-11-20T08:17:28.615Z,19.37
2018-11-20T08:20:36.080Z,18.37
2018-11-20T08:23:23.673Z,17.93
2018-11-20T08:26:09.770Z,18.50
2018-11-20T08:28:53.211Z,17.83
2018-11-20T08:31:41.778Z,28.27
2018-11-20T08:34:27.803Z,20.40
2018-11-20T08:37:15.747Z,18.60
2018-11-20T08:40:17.022Z,18.17
2018-11-20T08:43:11.686Z,19.47
2018-11-20T08:46:00.806Z,18.90
2018-11-20T08:48:49.948Z,20.67
2018-11-20T08:51:41.940Z,20.90
2018-11-20T08:54:34.902Z,18.93
2018-11-20T08:57:22.872Z,17.93
2018-11-20T09:00:14.786Z,18.77
2018-11-20T09:03:02.486Z,21.13
2018-11-20T09:06:09.525Z,22.33
2018-11-20T09:09:07.444Z,16.90
2018-11-20T09:12:05.729Z,25.97
2018-11-20T09:14:58.080Z,19.07
2018-11-20T09:17:46.023Z,18.37
2018-11-20T09:20:53.570Z,19.27
2018-11-20T09:23:48.376Z,21.50
2018-11-20T09:26:48.638Z,16.47
2018-11-20T09:29:36.598Z,16.43
2018-11-20T09:32:25.737Z,19.43
2018-11-20T09:35:14.620Z,17.80
2018-11-20T09:38:09.423Z,22.70
2018-11-20T09:41:01.955Z,19.50
2018-11-20T09:44:18.909Z,18.43
2018-11-20T09:47:06.915Z,18.13
2018-11-20T09:49:54.361Z,22.87
2018-11-20T09:52:43.505Z,21.63
2018-11-20T09:55:35.023Z,19.50
2018-11-20T09:58:24.180Z,22.87
2018-11-20T10:01:13.329Z,21.77
2018-11-20T10:04:17.652Z,20.27
2018-11-20T10:07:03.390Z,20.83
2018-11-20T10:09:55.056Z,32.73
2018-11-20T10:12:53.576Z,21.97
2018-11-20T10:15:41.702Z,22.07
2018-11-20T10:18:29.552Z,23.27
2018-11-20T10:21:21.642Z,20.60
2018-11-20T10:24:16.420Z,20.73
2018-11-20T10:27:04.403Z,20.23
2018-11-20T10:29:51.915Z,22.27
2018-11-20T10:32:39.988Z,22.40
2018-11-20T10:35:32.294Z,21.17
2018-11-20T10:38:21.564Z,22.27
2018-11-20T10:41:09.515Z,20.43
2018-11-20T10:44:01.613Z,23.17
2018-11-20T10:46:49.562Z,22.40
2018-11-20T10:49:50.742Z,28.27
2018-11-20T10:52:42.912Z,19.30
2018-11-20T10:55:34.891Z,19.93
2018-11-20T10:58:22.832Z,19.33
2018-11-20T11:01:10.649Z,21.93
2018-11-20T11:03:47.339Z,20.53
2018-11-20T11:06:36.730Z,20.80
2018-11-20T11:09:29.349Z,20.93
2018-11-20T11:12:18.427Z,21.10
2018-11-20T11:15:22.220Z,21.23
2018-11-20T11:18:14.121Z,24.77
2018-11-20T11:21:09.229Z,19.33
2018-11-20T11:24:01.444Z,18.13
2018-11-20T11:26:49.591Z,17.97
2018-11-20T11:29:35.627Z,22.50
2018-11-20T11:32:23.527Z,18.80
2018-11-20T11:35:11.509Z,19.57
2018-11-20T11:37:53.022Z,20.13
2018-11-20T11:40:42.128Z,24.53
2018-11-20T11:43:31.558Z,22.50
2018-11-20T11:46:24.766Z,21.67
2018-11-20T11:49:12.932Z,23.23
2018-11-20T11:51:53.294Z,23.70
2018-11-20T11:54:38.787Z,21.60
2018-11-20T11:57:40.056Z,22.53
2018-11-20T12:00:30.031Z,22.27
2018-11-20T12:03:19.125Z,21.97
2018-11-20T12:06:14.471Z,19.37
2018-11-20T12:09:18.859Z,20.97
2018-11-20T12:12:08.008Z,18.67
2018-11-20T12:14:54.174Z,18.23
2018-11-20T12:17:55.386Z,23.47
2018-11-20T12:20:44.482Z,20.73
2018-11-20T12:23:42.758Z,23.73
2018-11-20T12:26:34.737Z,23.03
2018-11-20T12:29:34.704Z,20.30
2018-11-20T12:32:20.248Z,20.43
2018-11-20T12:35:25.900Z,20.57
2018-11-20T12:38:09.537Z,21.07
2018-11-20T12:40:58.665Z,19.93
2018-11-20T12:43:43.544Z,22.47
2018-11-20T12:46:44.675Z,21.53
2018-11-20T12:49:33.845Z,19.10
2018-11-20T12:52:24.016Z,21.27
2018-11-20T12:55:10.670Z,21.30
2018-11-20T12:58:00.545Z,20.70
2018-11-20T13:00:45.388Z,22.90
2018-11-20T13:03:32.946Z,21.73
2018-11-20T13:06:30.378Z,20.00
2018-11-20T13:09:22.441Z,20.07
2018-11-20T13:12:13.635Z,23.07
2018-11-20T13:15:01.586Z,22.67
2018-11-20T13:17:59.472Z,20.57
2018-11-20T13:20:50.407Z,21.77
2018-11-20T13:23:37.721Z,22.17
2018-11-20T13:26:32.827Z,20.97
2018-11-20T13:29:24.370Z,22.97
2018-11-20T13:32:25.504Z,23.00
2018-11-20T13:35:14.621Z,22.83
2018-11-20T13:38:00.909Z,23.17
2018-11-20T13:41:27.454Z,22.83
2018-11-20T13:44:31.837Z,22.63
2018-11-20T13:47:19.761Z,24.57
2018-11-20T13:50:08.876Z,21.20
2018-11-20T13:53:16.205Z,22.13
2018-11-20T13:56:14.371Z,21.23
2018-11-20T13:59:03.503Z,20.90
2018-11-20T14:01:51.081Z,23.67
2018-11-20T14:04:46.054Z,24.20
2018-11-20T14:07:35.177Z,24.33
2018-11-20T14:10:29.271Z,22.70
2018-11-20T14:13:30.386Z,21.27
2018-11-20T14:16:28.487Z,22.93
2018-11-20T14:19:29.330Z,21.43
2018-11-20T14:22:16.923Z,23.63
2018-11-20T14:25:09.010Z,22.33
2018-11-20T14:28:14.250Z,20.87
2018-11-20T14:31:00.130Z,19.10
2018-11-20T14:33:56.542Z,22.20
2018-11-20T14:36:44.336Z,31.43
2018-11-20T14:39:25.741Z,22.17
2018-11-20T14:42:13.471Z,19.97
2018-11-20T14:45:08.246Z,20.60
2018-11-20T14:47:55.829Z,16.40
2018-11-20T14:51:03.461Z,20.77
2018-11-20T14:53:56.674Z,19.73
2018-11-20T14:56:38.848Z,20.00
2018-11-20T14:59:37.078Z,15.67
2018-11-20T15:02:32.009Z,18.70
2018-11-20T15:05:39.449Z,37.30
2018-11-20T15:08:40.635Z,21.00
2018-11-20T15:11:24.656Z,14.30
2018-11-20T15:14:13.937Z,15.70
2018-11-20T15:17:05.967Z,15.70
2018-11-20T15:19:54.028Z,17.47
2018-11-20T15:22:58.162Z,14.90
2018-11-20T15:25:53.222Z,16.90
2018-11-20T15:28:40.916Z,15.53
2018-11-20T15:31:33.111Z,17.73
2018-11-20T15:34:20.677Z,15.77
2018-11-20T15:37:12.417Z,14.53
2018-11-20T15:39:53.831Z,15.67
2018-11-20T15:42:54.947Z,11.17
2018-11-20T15:45:49.665Z,15.07
2018-11-20T15:48:36.240Z,14.53
2018-11-20T15:51:15.718Z,11.43
2018-11-20T15:54:03.702Z,10.40
2018-11-20T15:56:47.074Z,16.60
2018-11-20T15:59:36.199Z,12.00
2018-11-20T16:02:34.497Z,10.63
2018-11-20T16:05:22.181Z,10.47
2018-11-20T16:08:19.102Z,10.10
2018-11-20T16:11:07.071Z,10.80
2018-11-20T16:13:55.180Z,12.03
2018-11-20T16:17:16.456Z,11.37
2018-11-20T16:19:50.182Z,10.13
2018-11-20T16:22:38.344Z,10.83
2018-11-20T16:25:26.772Z,11.40
2018-11-20T16:28:28.011Z,12.03
2018-11-20T16:31:25.967Z,9.60
2018-11-20T16:34:33.464Z,10.67
2018-11-20T16:37:40.846Z,10.70
2018-11-20T16:40:28.490Z,11.47
2018-11-20T16:43:17.609Z,14.37
2018-11-20T16:46:05.467Z,10.17
2018-11-20T16:48:54.597Z,10.77
2018-11-20T16:51:52.701Z,11.97
2018-11-20T16:54:30.783Z,13.53
2018-11-20T16:57:12.654Z,12.07
2018-11-20T17:00:13.978Z,10.63
2018-11-20T17:03:01.563Z,12.23
2018-11-20T17:05:46.528Z,10.37
2018-11-20T17:08:34.065Z,10.67
2018-11-20T17:11:23.605Z,10.70
2018-11-20T17:14:20.468Z,11.60
2018-11-20T17:17:08.401Z,12.87
2018-11-20T17:19:56.112Z,12.57
2018-11-20T17:22:45.201Z,11.23
2018-11-20T17:25:33.097Z,12.13
2018-11-20T17:28:22.829Z,12.43
2018-11-20T17:31:26.954Z,13.57
2018-11-20T17:34:14.789Z,12.70
2018-11-20T17:37:00.265Z,10.80
2018-11-20T17:39:47.970Z,12.67
2018-11-20T17:42:42.803Z,13.20
2018-11-20T17:45:23.768Z,19.60
2018-11-20T17:48:09.045Z,16.63
2018-11-20T17:51:16.246Z,13.90
2018-11-20T17:54:03.873Z,13.40
2018-11-20T17:56:51.558Z,13.93
2018-11-20T17:59:40.816Z,14.90
2018-11-20T18:02:35.921Z,13.27
2018-11-20T18:05:24.264Z,13.80
2018-11-20T18:08:11.905Z,13.33
2018-11-20T18:10:59.861Z,16.27
2018-11-20T18:13:48.973Z,13.70
2018-11-20T18:16:36.859Z,14.03
2018-11-20T18:19:34.623Z,16.70
2018-11-20T18:22:21.518Z,15.57
2018-11-20T18:25:17.296Z,15.10
2018-11-20T18:28:01.409Z,38.37
2018-11-20T18:30:49.661Z,13.70
2018-11-20T18:33:37.341Z,15.03
2018-11-20T18:36:44.756Z,13.43
2018-11-20T18:39:30.373Z,14.97
2018-11-20T18:42:18.268Z,16.27
2018-11-20T18:45:16.134Z,14.33
2018-11-20T18:48:04.073Z,14.77
2018-11-20T18:51:03.536Z,17.83
2018-11-20T18:53:52.754Z,16.83
2018-11-20T18:56:45.847Z,14.93
2018-11-20T18:59:41.868Z,16.10
2018-11-20T19:02:27.792Z,16.07
2018-11-20T19:05:09.325Z,15.50
2018-11-20T19:08:16.606Z,15.67
2018-11-20T19:11:04.620Z,15.37
2018-11-20T19:14:05.714Z,16.93
2018-11-20T19:17:32.181Z,14.50
2018-11-20T19:20:18.388Z,14.90
2018-11-20T19:23:06.106Z,14.53
2018-11-20T19:25:54.467Z,17.13
2018-11-20T19:28:51.929Z,15.67
2018-11-20T19:31:53.311Z,20.13
2018-11-20T19:34:55.192Z,16.87
2018-11-20T19:37:42.460Z,16.80
2018-11-20T19:40:42.937Z,19.00
2018-11-20T19:43:31.253Z,17.53
2018-11-20T19:46:18.070Z,13.73
2018-11-20T19:49:05.224Z,15.00
2018-11-20T19:51:52.374Z,19.30
2018-11-20T19:54:43.338Z,18.23
2018-11-20T19:57:31.338Z,17.57
2018-11-20T20:00:18.393Z,17.73
2018-11-20T20:03:05.704Z,16.13
2018-11-20T20:06:02.702Z,15.93
2018-11-20T20:09:09.271Z,16.50
2018-11-20T20:11:57.584Z,16.90
2018-11-20T20:14:51.906Z,16.53
2018-11-20T20:17:49.631Z,18.03
2018-11-20T20:20:53.724Z,16.73
2018-11-20T20:23:54.491Z,18.87
2018-11-20T20:26:42.834Z,16.53
2018-11-20T20:29:33.945Z,17.50
2018-11-20T20:32:20.929Z,16.37
2018-11-20T20:35:05.364Z,15.23
2018-11-20T20:37:56.584Z,17.53
2018-11-20T20:40:44.909Z,18.33
2018-11-20T20:43:33.266Z,18.23
2018-11-20T20:46:21.858Z,16.73
2018-11-20T20:49:16.088Z,18.33
2018-11-20T20:52:03.024Z,21.23
2018-11-20T20:54:51.355Z,18.27
2018-11-20T20:57:39.656Z,17.17
2018-11-20T21:00:37.980Z,15.67
2018-11-20T21:03:25.744Z,16.50
2018-11-20T21:06:12.861Z,15.87
2018-11-20T21:09:01.219Z,16.93
2018-11-20T21:11:48.676Z,17.60
2018-11-20T21:14:42.747Z,16.40
2018-11-20T21:17:33.711Z,16.67
2018-11-20T21:20:22.669Z,17.57
2018-11-20T21:23:16.981Z,18.47
2018-11-20T21:26:03.817Z,16.97
2018-11-20T21:29:10.513Z,17.80
2018-11-20T21:31:57.641Z,17.27
2018-11-20T21:34:44.840Z,18.00
2018-11-20T21:37:27.449Z,17.23
2018-11-20T21:40:25.001Z,17.40
2018-11-20T21:43:12.080Z,16.00
2018-11-20T21:46:09.573Z,16.80
2018-11-20T21:48:56.666Z,16.57
2018-11-20T21:51:44.990Z,17.67
2018-11-20T21:54:31.704Z,17.00
2018-11-20T21:57:18.700Z,17.20
2018-11-20T22:00:15.172Z,17.43
2018-11-20T22:03:15.965Z,17.17
2018-11-20T22:06:03.166Z,18.90
2018-11-20T22:08:50.506Z,14.87
2018-11-20T22:11:54.114Z,18.10
2018-11-20T22:14:44.297Z,17.43
2018-11-20T22:17:49.270Z,18.23
2018-11-20T22:20:36.435Z,16.13
2018-11-20T22:23:34.140Z,17.27
2018-11-20T22:26:14.907Z,15.90
2018-11-20T22:29:02.544Z,16.10
2018-11-20T22:31:49.695Z,18.00
2018-11-20T22:34:40.566Z,14.43
2018-11-20T22:37:28.868Z,16.50
2018-11-20T22:40:12.936Z,15.90
2018-11-20T22:43:00.020Z,17.13
2018-11-20T22:45:47.994Z,16.40
2018-11-20T22:48:45.310Z,16.60
2018-11-20T22:51:33.913Z,16.43
2018-11-20T22:54:22.244Z,15.17
2018-11-20T22:57:10.567Z,15.53
2018-11-20T23:00:04.830Z,16.00
2018-11-20T23:02:54.066Z,16.87
2018-11-20T23:05:44.538Z,18.00
2018-11-20T23:08:13.912Z,14.43
2018-11-20T23:10:43.509Z,15.73
2018-11-20T23:13:12.750Z,17.03
2018-11-20T23:15:42.060Z,16.17
2018-11-20T23:18:11.258Z,17.50
2018-11-20T23:20:40.504Z,14.87
2018-11-20T23:23:09.732Z,15.80
2018-11-20T23:25:38.990Z,16.80
2018-11-20T23:28:08.197Z,15.80
2018-11-20T23:30:37.462Z,15.87
2018-11-20T23:33:06.720Z,15.60
2018-11-20T23:35:35.975Z,16.27
2018-11-20T23:38:05.559Z,17.30
2018-11-20T23:40:34.798Z,16.40
2018-11-20T23:43:04.021Z,16.80
2018-11-20T23:45:33.275Z,16.63
2018-11-20T23:48:02.502Z,17.50
2018-11-20T23:50:31.747Z,16.27
2018-11-20T23:53:01.003Z,18.13
2018-11-20T23:55:30.211Z,18.07
2018-11-20T23:57:59.448Z,17.33
